sensor_id;sensor_type;location;lat;lon;timestamp;pressure;altitude;pressure_sealevel;temperature;humidity
36932;BME280;22847;42.654;23.370;2023-04-26T00:00:41;93759.31;;;12.47;77.94
36932;BME280;22847;42.654;23.370;2023-04-26T00:03:07;93768.72;;;12.42;78.20
36932;BME280;22847;42.654;23.370;2023-04-26T00:05:32;93701.75;;;12.03;78.33
36932;BME280;22847;42.654;23.370;2023-04-26T00:08:00;93754.25;;;12.31;78.79
36932;BME280;22847;42.654;23.370;2023-04-26T00:10:25;93769.38;;;12.21;79.29
36932;BME280;22847;42.654;23.370;2023-04-26T00:12:51;93623.34;;;11.51;78.46
36932;BME280;22847;42.654;23.370;2023-04-26T00:15:17;93773.13;;;12.41;78.27
36932;BME280;22847;42.654;23.370;2023-04-26T00:17:42;93654.59;;;11.59;79.19
36932;BME280;22847;42.654;23.370;2023-04-26T00:20:09;93731.47;;;12.02;79.96
36932;BME280;22847;42.654;23.370;2023-04-26T00:22:36;93692.97;;;11.82;80.05
36932;BME280;22847;42.654;23.370;2023-04-26T00:25:02;93592.41;;;11.26;79.97
36932;BME280;22847;42.654;23.370;2023-04-26T00:27:27;93674.50;;;11.60;79.88
36932;BME280;22847;42.654;23.370;2023-04-26T00:29:52;93772.59;;;12.08;79.81
36932;BME280;22847;42.654;23.370;2023-04-26T00:32:18;93566.31;;;11.03;79.78
36932;BME280;22847;42.654;23.370;2023-04-26T00:34:43;93699.00;;;11.82;80.29
36932;BME280;22847;42.654;23.370;2023-04-26T00:37:09;93676.53;;;11.73;79.36
36932;BME280;22847;42.654;23.370;2023-04-26T00:39:34;93696.78;;;11.94;79.38
36932;BME280;22847;42.654;23.370;2023-04-26T00:41:59;93713.53;;;11.99;79.11
36932;BME280;22847;42.654;23.370;2023-04-26T00:44:26;93728.16;;;12.08;79.06
36932;BME280;22847;42.654;23.370;2023-04-26T00:46:52;93710.94;;;11.99;78.79
36932;BME280;22847;42.654;23.370;2023-04-26T00:49:21;93581.69;;;11.21;78.68
36932;BME280;22847;42.654;23.370;2023-04-26T00:51:47;93692.13;;;11.58;80.46
36932;BME280;22847;42.654;23.370;2023-04-26T00:54:13;93545.44;;;10.80;80.00
36932;BME280;22847;42.654;23.370;2023-04-26T00:56:40;93756.81;;;11.71;80.56
36932;BME280;22847;42.654;23.370;2023-04-26T00:59:06;93735.91;;;11.48;81.44
36932;BME280;22847;42.654;23.370;2023-04-26T01:01:31;93746.13;;;11.58;81.12
36932;BME280;22847;42.654;23.370;2023-04-26T01:03:57;93565.94;;;10.60;80.30
36932;BME280;22847;42.654;23.370;2023-04-26T01:06:23;93710.69;;;11.63;78.58
36932;BME280;22847;42.654;23.370;2023-04-26T01:08:54;93702.19;;;11.47;77.84
36932;BME280;22847;42.654;23.370;2023-04-26T01:11:21;93758.34;;;11.35;78.96
36932;BME280;22847;42.654;23.370;2023-04-26T01:13:49;93689.19;;;11.39;77.74
36932;BME280;22847;42.654;23.370;2023-04-26T01:16:16;93737.25;;;11.75;76.28
36932;BME280;22847;42.654;23.370;2023-04-26T01:18:49;93709.25;;;11.61;74.88
36932;BME280;22847;42.654;23.370;2023-04-26T01:21:25;93734.94;;;11.49;74.29
36932;BME280;22847;42.654;23.370;2023-04-26T01:23:51;93757.75;;;11.55;73.74
36932;BME280;22847;42.654;23.370;2023-04-26T01:26:17;93539.53;;;10.33;74.16
36932;BME280;22847;42.654;23.370;2023-04-26T01:28:43;93405.47;;;9.51;75.05
36932;BME280;22847;42.654;23.370;2023-04-26T01:31:08;93531.84;;;10.39;74.69
36932;BME280;22847;42.654;23.370;2023-04-26T01:33:34;93712.72;;;11.53;74.64
36932;BME280;22847;42.654;23.370;2023-04-26T01:35:59;93713.28;;;11.41;75.36
36932;BME280;22847;42.654;23.370;2023-04-26T01:38:25;93525.91;;;10.14;75.98
36932;BME280;22847;42.654;23.370;2023-04-26T01:40:50;93705.56;;;11.25;76.05
36932;BME280;22847;42.654;23.370;2023-04-26T01:43:16;93531.00;;;10.08;74.93
36932;BME280;22847;42.654;23.370;2023-04-26T01:45:46;93672.28;;;10.65;74.24
36932;BME280;22847;42.654;23.370;2023-04-26T01:48:12;93733.06;;;11.04;72.69
36932;BME280;22847;42.654;23.370;2023-04-26T01:50:37;93739.25;;;11.03;73.08
36932;BME280;22847;42.654;23.370;2023-04-26T01:53:03;93697.38;;;10.66;73.43
36932;BME280;22847;42.654;23.370;2023-04-26T01:55:28;93588.94;;;10.02;73.83
36932;BME280;22847;42.654;23.370;2023-04-26T01:57:54;93729.63;;;11.04;73.78
36932;BME280;22847;42.654;23.370;2023-04-26T02:00:19;93728.19;;;11.01;74.36
36932;BME280;22847;42.654;23.370;2023-04-26T02:02:45;93724.41;;;11.04;74.35
36932;BME280;22847;42.654;23.370;2023-04-26T02:05:10;93713.81;;;11.05;74.54
36932;BME280;22847;42.654;23.370;2023-04-26T02:07:36;93740.56;;;11.07;74.34
36932;BME280;22847;42.654;23.370;2023-04-26T02:10:01;93718.88;;;11.07;74.96
36932;BME280;22847;42.654;23.370;2023-04-26T02:12:27;93699.56;;;10.85;75.38
36932;BME280;22847;42.654;23.370;2023-04-26T02:14:53;93724.91;;;11.07;75.64
36932;BME280;22847;42.654;23.370;2023-04-26T02:17:18;93716.75;;;11.10;75.22
36932;BME280;22847;42.654;23.370;2023-04-26T02:19:45;93729.72;;;11.18;75.36
36932;BME280;22847;42.654;23.370;2023-04-26T02:22:11;93731.22;;;11.13;75.66
36932;BME280;22847;42.654;23.370;2023-04-26T02:24:37;93590.66;;;10.34;75.62
36932;BME280;22847;42.654;23.370;2023-04-26T02:27:02;93747.66;;;11.22;75.40
36932;BME280;22847;42.654;23.370;2023-04-26T02:29:29;93699.28;;;11.11;75.24
36932;BME280;22847;42.654;23.370;2023-04-26T02:31:56;93682.06;;;11.02;75.00
36932;BME280;22847;42.654;23.370;2023-04-26T02:34:22;93538.81;;;10.08;74.30
36932;BME280;22847;42.654;23.370;2023-04-26T02:36:47;93682.38;;;10.99;74.01
36932;BME280;22847;42.654;23.370;2023-04-26T02:39:13;93758.22;;;11.28;74.26
36932;BME280;22847;42.654;23.370;2023-04-26T02:41:38;93647.47;;;10.77;74.24
36932;BME280;22847;42.654;23.370;2023-04-26T02:44:03;93697.91;;;11.23;74.74
36932;BME280;22847;42.654;23.370;2023-04-26T02:46:29;93692.53;;;11.25;74.98
36932;BME280;22847;42.654;23.370;2023-04-26T02:48:54;93737.72;;;11.25;75.81
36932;BME280;22847;42.654;23.370;2023-04-26T02:51:20;93613.66;;;10.61;76.47
36932;BME280;22847;42.654;23.370;2023-04-26T02:53:45;93704.63;;;11.17;77.09
36932;BME280;22847;42.654;23.370;2023-04-26T02:56:11;93575.63;;;10.44;77.66
36932;BME280;22847;42.654;23.370;2023-04-26T02:58:36;93705.22;;;10.97;78.69
36932;BME280;22847;42.654;23.370;2023-04-26T03:01:01;93678.13;;;10.75;80.11
36932;BME280;22847;42.654;23.370;2023-04-26T03:03:28;93699.72;;;10.92;79.21
36932;BME280;22847;42.654;23.370;2023-04-26T03:05:54;93703.47;;;10.89;77.67
36932;BME280;22847;42.654;23.370;2023-04-26T03:08:20;93516.47;;;9.74;76.20
36932;BME280;22847;42.654;23.370;2023-04-26T03:10:45;93690.56;;;10.96;75.40
36932;BME280;22847;42.654;23.370;2023-04-26T03:13:11;93666.63;;;10.92;75.30
36932;BME280;22847;42.654;23.370;2023-04-26T03:15:36;93671.13;;;11.06;73.56
36932;BME280;22847;42.654;23.370;2023-04-26T03:18:02;93680.84;;;11.12;72.97
36932;BME280;22847;42.654;23.370;2023-04-26T03:20:28;93636.00;;;10.86;72.76
36932;BME280;22847;42.654;23.370;2023-04-26T03:22:53;93676.25;;;10.92;73.10
36932;BME280;22847;42.654;23.370;2023-04-26T03:25:19;93684.69;;;11.25;79.05
36932;BME280;22847;42.654;23.370;2023-04-26T03:27:44;93580.25;;;10.64;75.23
36932;BME280;22847;42.654;23.370;2023-04-26T03:30:10;93467.84;;;10.06;74.01
36932;BME280;22847;42.654;23.370;2023-04-26T03:32:35;93704.44;;;11.50;73.35
36932;BME280;22847;42.654;23.370;2023-04-26T03:35:01;93701.66;;;11.51;72.61
36932;BME280;22847;42.654;23.370;2023-04-26T03:37:26;93641.44;;;11.07;72.89
36932;BME280;22847;42.654;23.370;2023-04-26T03:39:52;93589.59;;;10.51;73.61
36932;BME280;22847;42.654;23.370;2023-04-26T03:42:19;93718.69;;;11.39;73.13
36932;BME280;22847;42.654;23.370;2023-04-26T03:44:45;93530.44;;;10.28;73.53
36932;BME280;22847;42.654;23.370;2023-04-26T03:47:11;93650.31;;;10.59;74.44
36932;BME280;22847;42.654;23.370;2023-04-26T03:49:36;93668.00;;;11.11;73.54
36932;BME280;22847;42.654;23.370;2023-04-26T03:52:02;93651.22;;;11.05;72.57
36932;BME280;22847;42.654;23.370;2023-04-26T03:54:28;93698.56;;;11.25;72.97
36932;BME280;22847;42.654;23.370;2023-04-26T03:56:56;93728.25;;;11.24;72.53
36932;BME280;22847;42.654;23.370;2023-04-26T03:59:21;93709.06;;;11.40;71.88
36932;BME280;22847;42.654;23.370;2023-04-26T04:01:47;93543.38;;;10.45;71.18
36932;BME280;22847;42.654;23.370;2023-04-26T04:04:12;93704.59;;;11.48;71.40
36932;BME280;22847;42.654;23.370;2023-04-26T04:06:37;93708.84;;;11.49;72.32
36932;BME280;22847;42.654;23.370;2023-04-26T04:09:03;93711.19;;;11.36;71.32
36932;BME280;22847;42.654;23.370;2023-04-26T04:11:31;93540.13;;;10.43;70.69
36932;BME280;22847;42.654;23.370;2023-04-26T04:13:57;93722.41;;;11.45;70.63
36932;BME280;22847;42.654;23.370;2023-04-26T04:16:22;93656.56;;;10.81;71.06
36932;BME280;22847;42.654;23.370;2023-04-26T04:18:48;93608.94;;;10.87;70.32
36932;BME280;22847;42.654;23.370;2023-04-26T04:21:13;93689.22;;;11.31;71.09
36932;BME280;22847;42.654;23.370;2023-04-26T04:23:39;93715.63;;;11.58;70.87
36932;BME280;22847;42.654;23.370;2023-04-26T04:26:04;93751.22;;;11.82;71.22
36932;BME280;22847;42.654;23.370;2023-04-26T04:28:31;93690.97;;;11.61;71.79
36932;BME280;22847;42.654;23.370;2023-04-26T04:30:56;93578.63;;;10.86;72.64
36932;BME280;22847;42.654;23.370;2023-04-26T04:33:22;93734.34;;;11.93;73.29
36932;BME280;22847;42.654;23.370;2023-04-26T04:35:49;93633.72;;;11.37;73.17
36932;BME280;22847;42.654;23.370;2023-04-26T04:38:16;93719.06;;;12.04;73.40
36932;BME280;22847;42.654;23.370;2023-04-26T04:40:42;93734.34;;;12.30;72.60
36932;BME280;22847;42.654;23.370;2023-04-26T04:43:07;93711.94;;;12.50;71.80
36932;BME280;22847;42.654;23.370;2023-04-26T04:45:33;93726.88;;;12.71;71.63
36932;BME280;22847;42.654;23.370;2023-04-26T04:47:59;93580.84;;;11.95;70.14
36932;BME280;22847;42.654;23.370;2023-04-26T04:50:25;93581.94;;;12.00;69.86
36932;BME280;22847;42.654;23.370;2023-04-26T04:52:50;93725.88;;;13.02;69.84
36932;BME280;22847;42.654;23.370;2023-04-26T04:55:16;93753.88;;;13.16;69.27
36932;BME280;22847;42.654;23.370;2023-04-26T04:57:41;93586.00;;;12.18;68.66
36932;BME280;22847;42.654;23.370;2023-04-26T05:00:07;93723.03;;;12.96;69.24
36932;BME280;22847;42.654;23.370;2023-04-26T05:02:36;93727.25;;;13.12;68.26
36932;BME280;22847;42.654;23.370;2023-04-26T05:05:03;93770.28;;;13.10;69.47
36932;BME280;22847;42.654;23.370;2023-04-26T05:07:30;93702.63;;;12.77;70.14
36932;BME280;22847;42.654;23.370;2023-04-26T05:09:56;93559.59;;;11.98;70.24
36932;BME280;22847;42.654;23.370;2023-04-26T05:12:21;93677.03;;;12.58;70.99
36932;BME280;22847;42.654;23.370;2023-04-26T05:14:47;93771.72;;;12.97;71.24
36932;BME280;22847;42.654;23.370;2023-04-26T05:17:13;93742.78;;;13.14;71.08
36932;BME280;22847;42.654;23.370;2023-04-26T05:19:38;93543.19;;;11.89;71.56
36932;BME280;22847;42.654;23.370;2023-04-26T05:22:04;93742.28;;;13.39;70.35
36932;BME280;22847;42.654;23.370;2023-04-26T05:24:30;93755.94;;;13.35;70.49
36932;BME280;22847;42.654;23.370;2023-04-26T05:26:59;93754.53;;;13.54;69.61
36932;BME280;22847;42.654;23.370;2023-04-26T05:29:29;93759.63;;;13.40;70.70
36932;BME280;22847;42.654;23.370;2023-04-26T05:31:55;93556.16;;;12.12;70.19
36932;BME280;22847;42.654;23.370;2023-04-26T05:34:22;93762.78;;;13.51;70.47
36932;BME280;22847;42.654;23.370;2023-04-26T05:36:47;93745.88;;;13.74;69.97
36932;BME280;22847;42.654;23.370;2023-04-26T05:39:13;93722.09;;;13.97;69.15
36932;BME280;22847;42.654;23.370;2023-04-26T05:41:38;93378.22;;;11.86;67.72
36932;BME280;22847;42.654;23.370;2023-04-26T05:44:03;93693.06;;;14.20;67.40
36932;BME280;22847;42.654;23.370;2023-04-26T05:46:29;93718.34;;;14.55;67.83
36932;BME280;22847;42.654;23.370;2023-04-26T05:48:54;93683.50;;;14.61;64.26
36932;BME280;22847;42.654;23.370;2023-04-26T05:51:20;93739.47;;;15.03;64.16
36932;BME280;22847;42.654;23.370;2023-04-26T05:53:46;93738.00;;;15.00;64.27
36932;BME280;22847;42.654;23.370;2023-04-26T05:56:11;93762.69;;;15.06;63.66
36932;BME280;22847;42.654;23.370;2023-04-26T05:58:36;93658.06;;;14.34;64.28
36932;BME280;22847;42.654;23.370;2023-04-26T06:01:02;93597.78;;;14.06;64.40
36932;BME280;22847;42.654;23.370;2023-04-26T06:03:27;93734.50;;;14.87;64.79
36932;BME280;22847;42.654;23.370;2023-04-26T06:05:53;93723.00;;;14.88;63.30
36932;BME280;22847;42.654;23.370;2023-04-26T06:08:18;93624.88;;;14.13;63.30
36932;BME280;22847;42.654;23.370;2023-04-26T06:10:43;93784.28;;;14.73;64.94
36932;BME280;22847;42.654;23.370;2023-04-26T06:13:11;93727.47;;;14.59;63.90
36932;BME280;22847;42.654;23.370;2023-04-26T06:15:36;93753.00;;;14.72;63.32
36932;BME280;22847;42.654;23.370;2023-04-26T06:18:03;93660.31;;;13.81;63.59
36932;BME280;22847;42.654;23.370;2023-04-26T06:20:29;93753.44;;;14.05;65.74
36932;BME280;22847;42.654;23.370;2023-04-26T06:22:54;93713.53;;;14.10;65.83
36932;BME280;22847;42.654;23.370;2023-04-26T06:25:20;93757.38;;;14.37;66.81
36932;BME280;22847;42.654;23.370;2023-04-26T06:27:45;93750.91;;;14.61;66.39
36932;BME280;22847;42.654;23.370;2023-04-26T06:30:11;93356.91;;;12.46;64.55
36932;BME280;22847;42.654;23.370;2023-04-26T06:32:39;93776.72;;;15.60;62.64
36932;BME280;22847;42.654;23.370;2023-04-26T06:35:04;93598.84;;;14.87;60.75
36932;BME280;22847;42.654;23.370;2023-04-26T06:37:30;93745.59;;;15.16;61.85
36932;BME280;22847;42.654;23.370;2023-04-26T06:39:56;93787.44;;;15.31;63.27
36932;BME280;22847;42.654;23.370;2023-04-26T06:42:21;93755.34;;;15.36;62.20
36932;BME280;22847;42.654;23.370;2023-04-26T06:44:47;93728.72;;;14.98;62.56
36932;BME280;22847;42.654;23.370;2023-04-26T06:47:12;93714.75;;;14.56;62.96
36932;BME280;22847;42.654;23.370;2023-04-26T06:49:38;93731.38;;;14.42;62.63
36932;BME280;22847;42.654;23.370;2023-04-26T06:52:04;93760.91;;;14.51;61.05
36932;BME280;22847;42.654;23.370;2023-04-26T06:54:31;93561.69;;;12.89;59.71
36932;BME280;22847;42.654;23.370;2023-04-26T06:56:57;93745.63;;;13.69;60.38
36932;BME280;22847;42.654;23.370;2023-04-26T06:59:22;93561.78;;;12.60;60.31
36932;BME280;22847;42.654;23.370;2023-04-26T07:01:48;93731.66;;;13.62;60.47
36932;BME280;22847;42.654;23.370;2023-04-26T07:04:13;93735.81;;;13.78;60.46
36932;BME280;22847;42.654;23.370;2023-04-26T07:06:39;93740.53;;;14.04;58.23
36932;BME280;22847;42.654;23.370;2023-04-26T07:09:05;93732.50;;;14.33;58.71
36932;BME280;22847;42.654;23.370;2023-04-26T07:11:31;93739.50;;;14.82;57.23
36932;BME280;22847;42.654;23.370;2023-04-26T07:13:57;93701.47;;;14.64;56.27
36932;BME280;22847;42.654;23.370;2023-04-26T07:16:22;93743.03;;;14.95;56.15
36932;BME280;22847;42.654;23.370;2023-04-26T07:18:48;93736.19;;;15.01;55.10
36932;BME280;22847;42.654;23.370;2023-04-26T07:21:14;93718.81;;;15.00;55.32
36932;BME280;22847;42.654;23.370;2023-04-26T07:23:39;93733.28;;;15.24;54.87
36932;BME280;22847;42.654;23.370;2023-04-26T07:26:05;93766.66;;;15.77;55.06
36932;BME280;22847;42.654;23.370;2023-04-26T07:28:31;93773.81;;;16.10;53.99
36932;BME280;22847;42.654;23.370;2023-04-26T07:30:57;93789.41;;;16.31;53.21
36932;BME280;22847;42.654;23.370;2023-04-26T07:33:23;93776.47;;;16.36;53.23
36932;BME280;22847;42.654;23.370;2023-04-26T07:35:55;93775.28;;;16.38;53.30
36932;BME280;22847;42.654;23.370;2023-04-26T07:38:21;93772.81;;;16.24;53.35
36932;BME280;22847;42.654;23.370;2023-04-26T07:40:47;93734.38;;;16.23;53.36
36932;BME280;22847;42.654;23.370;2023-04-26T07:43:12;93597.72;;;15.16;53.03
36932;BME280;22847;42.654;23.370;2023-04-26T07:45:40;93787.97;;;16.15;51.81
36932;BME280;22847;42.654;23.370;2023-04-26T07:48:05;93807.00;;;16.24;50.39
36932;BME280;22847;42.654;23.370;2023-04-26T07:50:31;93784.38;;;16.29;49.94
36932;BME280;22847;42.654;23.370;2023-04-26T07:52:56;93771.75;;;15.92;50.34
36932;BME280;22847;42.654;23.370;2023-04-26T07:55:21;93770.50;;;15.75;51.34
36932;BME280;22847;42.654;23.370;2023-04-26T07:57:47;93778.94;;;15.57;51.06
36932;BME280;22847;42.654;23.370;2023-04-26T08:00:13;93775.34;;;15.30;52.66
36932;BME280;22847;42.654;23.370;2023-04-26T08:02:40;93793.25;;;15.54;50.29
36932;BME280;22847;42.654;23.370;2023-04-26T08:05:05;93794.03;;;15.48;51.05
36932;BME280;22847;42.654;23.370;2023-04-26T08:07:31;93785.09;;;15.49;50.19
36932;BME280;22847;42.654;23.370;2023-04-26T08:09:57;93622.09;;;14.49;50.68
36932;BME280;22847;42.654;23.370;2023-04-26T08:12:22;93795.34;;;15.66;50.59
36932;BME280;22847;42.654;23.370;2023-04-26T08:14:48;93630.09;;;14.76;50.88
36932;BME280;22847;42.654;23.370;2023-04-26T08:17:13;93785.72;;;15.92;51.92
36932;BME280;22847;42.654;23.370;2023-04-26T08:19:39;93726.66;;;15.88;50.08
36932;BME280;22847;42.654;23.370;2023-04-26T08:22:05;93659.00;;;15.43;51.02
36932;BME280;22847;42.654;23.370;2023-04-26T08:24:31;93719.78;;;15.94;49.32
36932;BME280;22847;42.654;23.370;2023-04-26T08:26:57;93800.72;;;16.18;50.79
36932;BME280;22847;42.654;23.370;2023-04-26T08:29:23;93803.09;;;15.93;50.96
36932;BME280;22847;42.654;23.370;2023-04-26T08:31:49;93817.00;;;15.81;52.55
36932;BME280;22847;42.654;23.370;2023-04-26T08:34:14;93788.66;;;15.70;50.33
36932;BME280;22847;42.654;23.370;2023-04-26T08:36:40;93775.16;;;15.86;50.91
36932;BME280;22847;42.654;23.370;2023-04-26T08:39:10;93783.81;;;15.73;50.71
36932;BME280;22847;42.654;23.370;2023-04-26T08:41:54;93730.81;;;15.63;50.38
36932;BME280;22847;42.654;23.370;2023-04-26T08:44:23;93794.59;;;15.85;51.23
36932;BME280;22847;42.654;23.370;2023-04-26T08:47:17;93802.41;;;15.72;50.39
36932;BME280;22847;42.654;23.370;2023-04-26T08:49:44;93817.34;;;15.65;51.10
36932;BME280;22847;42.654;23.370;2023-04-26T08:52:12;93756.06;;;15.51;51.70
36932;BME280;22847;42.654;23.370;2023-04-26T08:54:39;93664.81;;;15.25;49.87
36932;BME280;22847;42.654;23.370;2023-04-26T08:57:06;93797.50;;;16.16;50.74
36932;BME280;22847;42.654;23.370;2023-04-26T08:59:36;93684.88;;;15.39;51.67
36932;BME280;22847;42.654;23.370;2023-04-26T09:02:04;93799.28;;;16.02;50.00
36932;BME280;22847;42.654;23.370;2023-04-26T09:04:29;93634.44;;;15.03;50.49
36932;BME280;22847;42.654;23.370;2023-04-26T09:07:00;93751.94;;;15.89;49.34
36932;BME280;22847;42.654;23.370;2023-04-26T09:09:26;93668.06;;;15.40;50.80
36932;BME280;22847;42.654;23.370;2023-04-26T09:11:53;93533.34;;;14.59;49.29
36932;BME280;22847;42.654;23.370;2023-04-26T09:14:19;93731.53;;;15.98;49.29
36932;BME280;22847;42.654;23.370;2023-04-26T09:16:44;93751.97;;;16.02;48.88
36932;BME280;22847;42.654;23.370;2023-04-26T09:19:10;93726.63;;;15.82;48.72
36932;BME280;22847;42.654;23.370;2023-04-26T09:21:43;93808.38;;;16.00;45.84
36932;BME280;22847;42.654;23.370;2023-04-26T09:24:09;93783.06;;;15.99;47.43
36932;BME280;22847;42.654;23.370;2023-04-26T09:26:35;93762.22;;;15.84;48.81
36932;BME280;22847;42.654;23.370;2023-04-26T09:29:13;93657.44;;;15.01;49.61
36932;BME280;22847;42.654;23.370;2023-04-26T09:31:41;93650.50;;;14.87;50.64
36932;BME280;22847;42.654;23.370;2023-04-26T09:34:09;93797.63;;;15.88;51.21
36932;BME280;22847;42.654;23.370;2023-04-26T09:36:51;93806.59;;;16.20;48.66
36932;BME280;22847;42.654;23.370;2023-04-26T09:39:31;93829.06;;;16.16;48.64
36932;BME280;22847;42.654;23.370;2023-04-26T09:41:57;93824.78;;;16.02;47.76
36932;BME280;22847;42.654;23.370;2023-04-26T09:44:23;93807.56;;;15.93;48.52
36932;BME280;22847;42.654;23.370;2023-04-26T09:47:05;93839.47;;;15.83;48.09
36932;BME280;22847;42.654;23.370;2023-04-26T09:52:09;93787.25;;;15.74;48.80
36932;BME280;22847;42.654;23.370;2023-04-26T09:54:44;93643.09;;;14.97;49.60
36932;BME280;22847;42.654;23.370;2023-04-26T09:57:12;93790.19;;;16.05;49.31
36932;BME280;22847;42.654;23.370;2023-04-26T09:59:56;93796.47;;;16.30;48.40
36932;BME280;22847;42.654;23.370;2023-04-26T10:02:24;93794.88;;;16.29;48.43
36932;BME280;22847;42.654;23.370;2023-04-26T10:04:51;93579.31;;;15.03;48.61
36932;BME280;22847;42.654;23.370;2023-04-26T10:07:19;93726.44;;;15.83;47.95
36932;BME280;22847;42.654;23.370;2023-04-26T10:09:45;93773.59;;;16.04;48.14
36932;BME280;22847;42.654;23.370;2023-04-26T10:12:12;93787.22;;;16.47;48.14
36932;BME280;22847;42.654;23.370;2023-04-26T10:14:38;93798.94;;;16.38;47.50
36932;BME280;22847;42.654;23.370;2023-04-26T10:17:04;93764.50;;;16.07;46.89
36932;BME280;22847;42.654;23.370;2023-04-26T10:19:34;93754.19;;;16.12;48.83
36932;BME280;22847;42.654;23.370;2023-04-26T10:22:06;93762.69;;;16.14;46.75
36932;BME280;22847;42.654;23.370;2023-04-26T10:24:33;93773.66;;;16.37;47.08
36932;BME280;22847;42.654;23.370;2023-04-26T10:26:59;93741.66;;;16.53;46.44
36932;BME280;22847;42.654;23.370;2023-04-26T10:32:18;93779.91;;;16.49;47.38
36932;BME280;22847;42.654;23.370;2023-04-26T10:34:44;93652.41;;;15.86;44.88
36932;BME280;22847;42.654;23.370;2023-04-26T10:37:30;93746.72;;;16.35;45.63
36932;BME280;22847;42.654;23.370;2023-04-26T10:40:21;93774.22;;;16.26;45.46
36932;BME280;22847;42.654;23.370;2023-04-26T10:42:47;93779.69;;;16.31;46.25
36932;BME280;22847;42.654;23.370;2023-04-26T10:45:26;93602.56;;;15.19;47.72
36932;BME280;22847;42.654;23.370;2023-04-26T10:53:26;93753.94;;;15.87;44.42
36932;BME280;22847;42.654;23.370;2023-04-26T10:55:51;93797.19;;;15.78;45.12
36932;BME280;22847;42.654;23.370;2023-04-26T10:58:33;93791.34;;;15.83;44.85
36932;BME280;22847;42.654;23.370;2023-04-26T11:03:29;93772.41;;;16.07;46.58
36932;BME280;22847;42.654;23.370;2023-04-26T11:05:55;93771.19;;;16.23;44.70
36932;BME280;22847;42.654;23.370;2023-04-26T11:13:31;93784.88;;;15.92;45.51
36932;BME280;22847;42.654;23.370;2023-04-26T11:16:01;93777.84;;;16.12;43.08
36932;BME280;22847;42.654;23.370;2023-04-26T11:18:30;93752.56;;;16.11;43.17
36932;BME280;22847;42.654;23.370;2023-04-26T11:20:57;93798.34;;;16.30;43.24
36932;BME280;22847;42.654;23.370;2023-04-26T11:23:26;93778.50;;;16.34;42.97
36932;BME280;22847;42.654;23.370;2023-04-26T11:25:51;93748.53;;;16.15;43.98
36932;BME280;22847;42.654;23.370;2023-04-26T11:28:19;93789.19;;;16.26;43.17
36932;BME280;22847;42.654;23.370;2023-04-26T11:30:48;93595.91;;;15.23;43.27
36932;BME280;22847;42.654;23.370;2023-04-26T11:33:18;93772.03;;;16.30;42.65
36932;BME280;22847;42.654;23.370;2023-04-26T11:35:46;93725.25;;;16.45;42.67
36932;BME280;22847;42.654;23.370;2023-04-26T11:38:12;93773.25;;;16.86;43.66
36932;BME280;22847;42.654;23.370;2023-04-26T11:40:38;93776.28;;;16.77;41.02
36932;BME280;22847;42.654;23.370;2023-04-26T11:43:04;93774.28;;;16.59;40.82
36932;BME280;22847;42.654;23.370;2023-04-26T11:45:31;93782.97;;;16.46;41.34
36932;BME280;22847;42.654;23.370;2023-04-26T11:47:57;93641.06;;;15.59;41.54
36932;BME280;22847;42.654;23.370;2023-04-26T11:50:24;93764.72;;;16.45;40.74
36932;BME280;22847;42.654;23.370;2023-04-26T11:52:53;93726.69;;;16.15;41.75
36932;BME280;22847;42.654;23.370;2023-04-26T11:55:22;93588.84;;;15.17;40.72
36932;BME280;22847;42.654;23.370;2023-04-26T11:57:49;93671.16;;;15.50;41.79
36932;BME280;22847;42.654;23.370;2023-04-26T12:00:15;93749.13;;;16.17;42.11
36932;BME280;22847;42.654;23.370;2023-04-26T12:02:44;93752.19;;;16.27;41.15
36932;BME280;22847;42.654;23.370;2023-04-26T12:05:22;93761.06;;;16.52;41.58
36932;BME280;22847;42.654;23.370;2023-04-26T12:07:50;93721.84;;;16.38;40.19
36932;BME280;22847;42.654;23.370;2023-04-26T12:10:18;93595.19;;;15.69;41.53
36932;BME280;22847;42.654;23.370;2023-04-26T12:12:48;93750.97;;;16.56;42.49
36932;BME280;22847;42.654;23.370;2023-04-26T12:15:15;93740.66;;;16.41;40.60
36932;BME280;22847;42.654;23.370;2023-04-26T12:18:07;93744.50;;;16.45;40.35
36932;BME280;22847;42.654;23.370;2023-04-26T12:20:43;93761.88;;;16.27;41.62
36932;BME280;22847;42.654;23.370;2023-04-26T12:23:15;93240.22;;;13.01;42.41
36932;BME280;22847;42.654;23.370;2023-04-26T12:25:51;93742.50;;;16.34;41.66
36932;BME280;22847;42.654;23.370;2023-04-26T12:28:17;93744.69;;;16.44;42.56
36932;BME280;22847;42.654;23.370;2023-04-26T12:30:43;93578.81;;;15.60;42.19
36932;BME280;22847;42.654;23.370;2023-04-26T12:33:08;93766.59;;;16.84;42.30
36932;BME280;22847;42.654;23.370;2023-04-26T12:35:34;93589.94;;;15.88;40.74
36932;BME280;22847;42.654;23.370;2023-04-26T12:38:00;93618.63;;;16.03;41.08
36932;BME280;22847;42.654;23.370;2023-04-26T12:40:29;93701.97;;;16.48;40.72
36932;BME280;22847;42.654;23.370;2023-04-26T12:42:56;93715.94;;;16.36;42.35
36932;BME280;22847;42.654;23.370;2023-04-26T12:45:24;93738.00;;;16.55;40.41
36932;BME280;22847;42.654;23.370;2023-04-26T12:47:52;93726.28;;;16.37;44.59
36932;BME280;22847;42.654;23.370;2023-04-26T12:50:18;93766.53;;;16.44;40.29
36932;BME280;22847;42.654;23.370;2023-04-26T12:52:44;93650.78;;;15.85;40.68
36932;BME280;22847;42.654;23.370;2023-04-26T12:55:10;93734.75;;;16.26;41.66
36932;BME280;22847;42.654;23.370;2023-04-26T12:57:37;93431.31;;;14.17;42.23
36932;BME280;22847;42.654;23.370;2023-04-26T13:00:04;93608.84;;;15.31;41.65
36932;BME280;22847;42.654;23.370;2023-04-26T13:02:30;93747.53;;;16.16;42.32
36932;BME280;22847;42.654;23.370;2023-04-26T13:04:57;93743.47;;;16.20;41.88
36932;BME280;22847;42.654;23.370;2023-04-26T13:07:22;93748.53;;;16.15;41.02